Time;durP1;ratioP1;P1;durP2;ratioP2;P2;SDS_P1;SDS_P2;PMS_P1;PMS_P2;Temp;Humidity;BMP_temperature;BMP_pressure;BME280_temperature;BME280_humidity;BME280_pressure;Samples;Min_cycle;Max_cycle;Signal;HPM_P1;HPM_P2
2023/01/22 10:05:05;;;;;;;11.15;8.95;;;4.00;99.90;;;;;;5173431;27;20559;-77
2023/01/22 10:07:39;;;;;;;17.25;8.25;;;3.90;99.90;;;;;;5127362;27;20197;-74
2023/01/22 10:10:19;;;;;;;8.10;6.72;;;4.10;99.90;;;;;;5128476;27;20279;-78
2023/01/22 10:12:50;;;;;;;12.07;6.53;;;4.30;99.90;;;;;;5128109;28;20232;-78
2023/01/22 10:15:20;;;;;;;8.45;7.55;;;4.50;99.90;;;;;;5134032;27;20327;-80
2023/01/22 10:17:48;;;;;;;8.50;5.88;;;4.60;99.90;;;;;;5142947;27;20200;-77
2023/01/22 10:20:19;;;;;;;8.98;7.43;;;4.80;99.90;;;;;;5126139;27;20201;-79
2023/01/22 10:22:47;;;;;;;8.02;6.97;;;4.90;99.90;;;;;;5124194;27;20206;-76
2023/01/22 10:25:15;;;;;;;8.85;6.75;;;5.00;99.90;;;;;;5114426;27;20213;-81
2023/01/22 10:27:45;;;;;;;7.20;5.82;;;5.10;99.90;;;;;;5113464;27;20201;-80
2023/01/22 10:30:21;;;;;;;7.70;5.55;;;5.20;99.90;;;;;;5116333;27;20666;-76
2023/01/22 10:32:59;;;;;;;10.50;6.50;;;5.30;99.90;;;;;;5112805;27;20199;-75
2023/01/22 10:35:29;;;;;;;11.20;5.95;;;5.30;99.90;;;;;;5125111;27;20229;-78
2023/01/22 10:37:57;;;;;;;8.18;7.22;;;5.20;99.90;;;;;;5117732;27;20215;-77
2023/01/22 10:40:29;;;;;;;10.25;6.47;;;5.20;99.90;;;;;;5132223;27;20629;-75
2023/01/22 10:43:10;;;;;;;8.15;6.70;;;5.30;99.90;;;;;;5123483;27;20284;-75
2023/01/22 10:45:37;;;;;;;12.18;6.30;;;5.30;99.90;;;;;;5125704;27;20222;-75
2023/01/22 10:48:14;;;;;;;14.93;8.82;;;5.30;99.90;;;;;;5122010;27;20232;-77
2023/01/22 10:50:44;;;;;;;14.32;7.93;;;5.30;99.90;;;;;;5122226;27;20201;-77
2023/01/22 10:53:19;;;;;;;12.48;7.25;;;5.40;99.90;;;;;;5117827;27;20195;-78
2023/01/22 10:55:53;;;;;;;10.20;6.18;;;5.40;99.90;;;;;;5126241;27;20224;-78
2023/01/22 10:58:21;;;;;;;7.80;6.03;;;5.40;99.90;;;;;;5127173;27;20230;-78
2023/01/22 11:00:59;;;;;;;10.18;6.10;;;5.40;99.90;;;;;;5122329;27;20196;-77
2023/01/22 11:03:31;;;;;;;7.65;5.80;;;5.50;99.90;;;;;;5126398;27;20284;-80
2023/01/22 11:06:04;;;;;;;9.40;5.85;;;5.50;99.90;;;;;;5117956;27;20306;-80
2023/01/22 11:08:46;;;;;;;10.98;6.05;;;5.60;99.90;;;;;;5130807;27;20565;-80
2023/01/22 11:11:16;;;;;;;8.35;5.95;;;5.60;99.90;;;;;;5127936;27;20207;-78
2023/01/22 11:13:50;;;;;;;9.40;6.15;;;5.70;99.90;;;;;;5124152;27;20188;-80
2023/01/22 11:16:19;;;;;;;8.18;6.40;;;5.70;99.90;;;;;;5105193;27;20338;-82
2023/01/22 11:18:54;;;;;;;8.98;5.72;;;5.70;99.90;;;;;;5100520;27;20244;-81
2023/01/22 11:21:26;;;;;;;9.60;6.15;;;5.70;99.90;;;;;;5111781;27;20205;-83
2023/01/22 11:24:03;;;;;;;12.98;6.68;;;5.70;99.90;;;;;;5110678;28;20286;-81
2023/01/22 11:26:51;;;;;;;8.77;5.18;;;5.70;99.90;;;;;;5114346;27;20219;-81
2023/01/22 11:29:32;;;;;;;11.48;5.90;;;5.70;99.90;;;;;;5119751;28;20226;-82
2023/01/22 11:32:19;;;;;;;10.02;6.68;;;5.80;99.90;;;;;;5129461;27;20196;-82
2023/01/22 11:34:57;;;;;;;10.93;5.63;;;5.90;99.90;;;;;;5124570;28;20288;-81
2023/01/22 11:37:41;;;;;;;7.90;5.97;;;6.00;99.90;;;;;;5127430;27;20211;-81
2023/01/22 11:40:19;;;;;;;13.23;6.70;;;6.00;99.90;;;;;;5120709;27;20227;-78
2023/01/22 11:43:04;;;;;;;11.85;6.05;;;5.90;99.90;;;;;;5120612;27;20224;-79
2023/01/22 11:45:54;;;;;;;8.35;6.40;;;6.00;99.90;;;;;;5110149;28;20263;-79
2023/01/22 11:48:36;;;;;;;7.75;5.55;;;6.10;99.90;;;;;;5121284;28;20204;-80
2023/01/22 11:51:20;;;;;;;8.52;6.18;;;6.10;99.90;;;;;;5119071;28;20251;-79
2023/01/22 11:54:24;;;;;;;9.00;5.82;;;6.10;99.90;;;;;;5132245;28;20254;-83
2023/01/22 11:57:05;;;;;;;13.50;6.90;;;6.10;99.90;;;;;;5124798;28;20204;-80
2023/01/22 12:03:05;;;;;;;12.95;5.80;;;6.00;99.90;;;;;;5124374;28;20269;-81
2023/01/22 12:05:40;;;;;;;8.15;5.72;;;6.00;99.90;;;;;;5122297;27;20217;-79
2023/01/22 12:08:36;;;;;;;8.95;5.15;;;6.00;99.90;;;;;;5123555;28;20199;-80
2023/01/22 12:11:28;;;;;;;10.60;5.20;;;6.10;99.90;;;;;;5119466;28;20204;-84
2023/01/22 12:14:28;;;;;;;9.60;5.70;;;6.10;99.90;;;;;;5108740;28;20209;-83
2023/01/22 12:17:02;;;;;;;9.07;5.38;;;6.30;99.90;;;;;;5096712;28;20215;-84
2023/01/22 12:19:52;;;;;;;11.57;5.28;;;6.20;99.90;;;;;;5124676;28;20201;-81
2023/01/22 12:22:28;;;;;;;11.77;6.50;;;6.10;99.90;;;;;;5112768;28;20250;-81
2023/01/22 12:25:01;;;;;;;8.10;5.00;;;6.20;99.90;;;;;;5106604;27;20224;-81
2023/01/22 12:27:38;;;;;;;10.43;5.95;;;6.20;99.90;;;;;;5101546;27;20208;-81
2023/01/22 12:30:23;;;;;;;9.48;5.53;;;6.20;99.90;;;;;;5116564;27;20199;-82
2023/01/22 12:32:56;;;;;;;12.07;4.97;;;6.30;99.90;;;;;;5112254;28;20224;-83
2023/01/22 12:35:27;;;;;;;7.15;4.88;;;6.10;99.90;;;;;;5111000;27;20231;-83
2023/01/22 12:38:03;;;;;;;10.45;5.63;;;6.30;99.90;;;;;;5112279;27;20286;-82
2023/01/22 12:40:48;;;;;;;7.93;5.38;;;6.40;99.90;;;;;;5106748;28;20208;-82
2023/01/22 12:43:22;;;;;;;7.53;5.18;;;6.30;99.90;;;;;;5102040;28;20204;-80
2023/01/22 12:45:56;;;;;;;10.57;4.63;;;6.30;99.90;;;;;;5108860;27;20224;-80
2023/01/22 12:48:28;;;;;;;9.18;5.90;;;6.30;99.90;;;;;;5108516;28;20222;-80
2023/01/22 12:50:59;;;;;;;12.80;6.13;;;6.30;99.90;;;;;;5101793;28;20246;-80
2023/01/22 12:53:28;;;;;;;12.13;6.55;;;6.40;99.90;;;;;;5110402;28;20289;-80
2023/01/22 12:56:00;;;;;;;9.30;5.78;;;6.40;99.90;;;;;;5109165;28;20256;-80
2023/01/22 12:58:31;;;;;;;11.05;4.90;;;6.40;99.90;;;;;;5109888;28;20193;-81
2023/01/22 13:01:04;;;;;;;6.18;4.63;;;6.40;99.90;;;;;;5112809;28;20258;-82
2023/01/22 13:03:32;;;;;;;11.60;6.20;;;6.40;99.90;;;;;;5108264;28;20253;-82
2023/01/22 13:06:01;;;;;;;10.13;5.90;;;6.40;99.90;;;;;;5101971;28;20765;-84
2023/01/22 13:08:40;;;;;;;10.18;5.82;;;6.40;99.90;;;;;;5110170;28;20215;-80
2023/01/22 13:11:10;;;;;;;6.47;5.28;;;6.40;99.90;;;;;;5112494;28;20204;-79
2023/01/22 13:13:49;;;;;;;7.05;5.53;;;6.40;99.90;;;;;;5113688;28;20201;-82
2023/01/22 13:16:28;;;;;;;10.13;5.15;;;6.30;99.90;;;;;;5113607;28;20219;-84
2023/01/22 13:18:56;;;;;;;8.75;5.47;;;6.20;99.90;;;;;;5114398;28;20228;-81
2023/01/22 13:21:28;;;;;;;8.23;5.53;;;6.20;99.90;;;;;;5114329;28;20204;-84
2023/01/22 13:23:59;;;;;;;8.00;4.93;;;6.20;99.90;;;;;;5107542;28;20632;-81
2023/01/22 13:26:31;;;;;;;7.30;4.78;;;6.20;99.90;;;;;;5110023;28;20339;-82
2023/01/22 13:29:04;;;;;;;8.98;5.30;;;6.20;99.90;;;;;;5104082;28;20209;-79
2023/01/22 13:31:31;;;;;;;8.65;4.90;;;6.10;99.90;;;;;;5100680;28;20197;-79
2023/01/22 13:34:07;;;;;;;7.28;5.53;;;6.20;99.90;;;;;;5120580;28;20322;-85
2023/01/22 13:36:38;;;;;;;6.40;4.95;;;6.10;99.90;;;;;;5104374;28;20234;-83
2023/01/22 13:39:05;;;;;;;8.90;5.75;;;6.10;99.90;;;;;;5114890;28;20731;-82
2023/01/22 13:41:36;;;;;;;15.02;5.35;;;6.10;99.90;;;;;;5112512;28;20647;-82
2023/01/22 13:44:07;;;;;;;12.35;7.45;;;6.10;99.90;;;;;;5111646;28;20348;-82
2023/01/22 13:46:37;;;;;;;9.63;6.07;;;6.10;99.90;;;;;;5098858;28;20714;-83
2023/01/22 13:49:07;;;;;;;11.07;5.95;;;6.10;99.90;;;;;;5113339;28;20266;-79
2023/01/22 13:51:35;;;;;;;10.88;5.65;;;6.10;99.90;;;;;;5104077;28;20215;-86
2023/01/22 13:54:03;;;;;;;7.97;5.70;;;6.10;99.90;;;;;;5112157;28;20220;-81
2023/01/22 13:56:32;;;;;;;10.63;6.00;;;6.10;99.90;;;;;;5116244;28;20307;-82
2023/01/22 13:59:16;;;;;;;16.10;7.63;;;6.00;99.90;;;;;;5117055;28;20238;-83
2023/01/22 14:01:43;;;;;;;11.35;7.30;;;6.00;99.90;;;;;;5103749;28;20231;-85
2023/01/22 14:04:26;;;;;;;10.35;8.32;;;6.00;99.90;;;;;;5106812;28;20295;-85
2023/01/22 14:06:53;;;;;;;12.70;6.70;;;5.90;99.90;;;;;;5104499;28;20212;-85
2023/01/22 14:09:28;;;;;;;12.52;6.18;;;5.90;99.90;;;;;;5116621;28;20205;-82
2023/01/22 14:11:55;;;;;;;12.05;6.72;;;6.00;99.90;;;;;;5104836;28;20207;-73
2023/01/22 14:14:25;;;;;;;8.30;5.40;;;6.00;99.90;;;;;;5103904;28;20306;-76
2023/01/22 14:16:52;;;;;;;8.40;6.05;;;6.00;99.90;;;;;;5100009;28;20675;-76
2023/01/22 14:19:19;;;;;;;8.00;5.80;;;6.00;99.90;;;;;;5111177;28;20287;-74
2023/01/22 14:21:46;;;;;;;10.25;5.72;;;5.90;99.90;;;;;;5103290;28;20210;-76
2023/01/22 14:24:13;;;;;;;8.13;6.88;;;5.90;99.90;;;;;;5094686;28;20196;-76
2023/01/22 14:26:40;;;;;;;12.00;5.07;;;6.00;99.90;;;;;;5098615;28;20963;-78
2023/01/22 14:29:08;;;;;;;10.05;6.80;;;5.90;99.90;;;;;;5095189;28;20228;-78
2023/01/22 14:31:37;;;;;;;8.85;6.30;;;5.90;99.90;;;;;;5101939;28;20284;-77
2023/01/22 14:34:04;;;;;;;8.73;5.85;;;6.00;99.90;;;;;;5108393;28;20289;-78
2023/01/22 14:36:31;;;;;;;15.15;5.90;;;5.90;99.90;;;;;;5106155;28;20255;-80
2023/01/22 14:39:00;;;;;;;10.30;7.60;;;5.90;99.90;;;;;;5107113;28;20205;-82
2023/01/22 14:41:28;;;;;;;10.95;5.38;;;5.80;99.90;;;;;;5106621;28;20194;-82
2023/01/22 14:43:56;;;;;;;7.10;5.88;;;5.80;99.90;;;;;;5108262;28;20243;-75
2023/01/22 14:46:23;;;;;;;7.97;5.38;;;5.80;99.90;;;;;;5112166;28;20223;-77
2023/01/22 14:48:51;;;;;;;8.60;4.78;;;5.80;99.90;;;;;;5105992;28;20213;-79
2023/01/22 14:51:19;;;;;;;10.30;5.53;;;5.80;99.90;;;;;;5111399;27;20199;-81
2023/01/22 14:53:46;;;;;;;9.48;5.60;;;5.70;99.90;;;;;;5098957;28;20198;-78
2023/01/22 14:56:13;;;;;;;10.48;5.30;;;5.60;99.90;;;;;;5103683;27;20229;-79
2023/01/22 14:58:40;;;;;;;9.68;5.88;;;5.80;99.90;;;;;;5106249;28;20195;-77
2023/01/22 15:01:18;;;;;;;14.50;5.97;;;5.80;99.90;;;;;;5104916;27;20222;-80
2023/01/22 15:03:45;;;;;;;7.72;5.28;;;5.80;99.90;;;;;;5112260;27;20298;-79
2023/01/22 15:06:13;;;;;;;8.93;5.90;;;5.90;99.90;;;;;;5123735;27;20433;-79
2023/01/22 15:08:40;;;;;;;6.65;5.03;;;6.00;99.90;;;;;;5120241;27;20442;-82
2023/01/22 15:11:07;;;;;;;12.63;5.43;;;6.00;99.90;;;;;;5117380;27;20200;-80
2023/01/22 15:13:35;;;;;;;10.35;6.13;;;6.00;99.90;;;;;;5097454;27;20233;-81
2023/01/22 15:16:04;;;;;;;10.05;5.47;;;6.00;99.90;;;;;;5097824;28;20228;-79
2023/01/22 15:18:33;;;;;;;12.30;6.07;;;6.00;99.90;;;;;;5104145;27;20224;-80
2023/01/22 15:21:00;;;;;;;8.75;5.05;;;6.00;99.90;;;;;;5100043;28;20242;-80
2023/01/22 15:23:34;;;;;;;10.15;5.72;;;5.90;99.90;;;;;;5123806;28;20281;-81
2023/01/22 15:26:04;;;;;;;10.02;5.53;;;6.00;99.90;;;;;;5106942;28;20220;-80
2023/01/22 15:28:31;;;;;;;6.35;4.90;;;6.00;99.90;;;;;;5105926;28;20212;-81
2023/01/22 15:31:06;;;;;;;8.63;4.80;;;6.00;99.90;;;;;;5098440;27;20236;-81
2023/01/22 15:33:33;;;;;;;9.35;4.80;;;5.90;99.90;;;;;;5104562;27;20212;-81
2023/01/22 15:36:00;;;;;;;9.27;4.95;;;6.00;99.90;;;;;;5104197;27;20259;-79
2023/01/22 15:38:27;;;;;;;8.50;4.97;;;5.90;99.90;;;;;;5100374;27;20209;-82
2023/01/22 15:41:04;;;;;;;8.32;5.68;;;5.90;99.90;;;;;;5102862;28;20238;-79
2023/01/22 15:43:31;;;;;;;10.93;6.57;;;5.90;99.90;;;;;;5115260;28;20191;-82
2023/01/22 15:45:58;;;;;;;8.75;5.75;;;5.90;99.90;;;;;;5109639;28;20225;-81
2023/01/22 15:48:25;;;;;;;7.90;5.25;;;5.90;99.90;;;;;;5106331;28;20230;-80
2023/01/22 15:50:52;;;;;;;10.23;5.53;;;5.90;99.90;;;;;;5103388;28;20214;-79
2023/01/22 15:53:19;;;;;;;10.85;5.68;;;5.90;99.90;;;;;;5106967;28;20205;-80
2023/01/22 15:55:49;;;;;;;14.95;5.97;;;5.80;99.90;;;;;;5114703;28;20827;-80
2023/01/22 15:58:18;;;;;;;5.93;4.85;;;5.80;99.90;;;;;;5106742;28;20203;-81
2023/01/22 16:00:45;;;;;;;10.35;5.15;;;5.80;99.90;;;;;;5113521;28;20208;-81
2023/01/22 16:03:12;;;;;;;12.90;5.40;;;5.90;99.90;;;;;;5116254;28;20529;-82
2023/01/22 16:05:39;;;;;;;7.40;4.70;;;5.80;99.90;;;;;;5111307;28;20211;-79
2023/01/22 16:08:06;;;;;;;10.77;5.85;;;5.80;99.90;;;;;;5114164;28;20200;-78
2023/01/22 16:10:33;;;;;;;11.18;5.45;;;5.80;99.90;;;;;;5122094;28;20355;-82
2023/01/22 16:13:01;;;;;;;6.22;4.60;;;5.90;99.90;;;;;;5115486;28;20224;-80
2023/01/22 16:15:29;;;;;;;9.20;5.13;;;5.80;99.90;;;;;;5128402;28;20694;-79
2023/01/22 16:17:56;;;;;;;8.02;6.25;;;5.90;99.90;;;;;;5120547;28;20196;-78
2023/01/22 16:20:27;;;;;;;8.55;5.18;;;5.90;99.90;;;;;;5108302;28;20205;-82
2023/01/22 16:22:54;;;;;;;7.15;5.00;;;5.90;99.90;;;;;;5110607;28;20260;-80
2023/01/22 16:25:21;;;;;;;9.52;5.03;;;5.90;99.90;;;;;;5111598;28;20220;-81
2023/01/22 16:27:48;;;;;;;11.52;5.50;;;5.90;99.90;;;;;;5104083;28;20450;-81
2023/01/22 16:30:15;;;;;;;11.48;6.53;;;5.90;99.90;;;;;;5115090;28;20199;-79
2023/01/22 16:32:44;;;;;;;9.65;5.90;;;5.90;99.90;;;;;;5113036;28;20193;-79
2023/01/22 16:35:17;;;;;;;14.07;6.15;;;5.90;99.90;;;;;;5106436;28;20221;-78
2023/01/22 16:37:44;;;;;;;9.93;5.82;;;5.90;99.90;;;;;;5109078;28;20196;-77
2023/01/22 16:40:13;;;;;;;8.05;5.13;;;5.90;99.90;;;;;;5106923;28;20286;-78
2023/01/22 16:42:40;;;;;;;13.32;5.55;;;5.90;99.90;;;;;;5114350;28;20200;-80
2023/01/22 16:45:08;;;;;;;8.20;5.60;;;5.80;99.90;;;;;;5107016;28;20774;-79
2023/01/22 16:47:38;;;;;;;9.32;5.57;;;5.80;99.90;;;;;;5110620;28;20195;-80
2023/01/22 16:50:10;;;;;;;8.07;6.25;;;5.70;99.90;;;;;;5103899;28;20203;-80
2023/01/22 16:52:38;;;;;;;17.20;6.25;;;5.70;99.90;;;;;;5100502;28;20287;-82
2023/01/22 16:55:08;;;;;;;12.18;6.47;;;5.70;99.90;;;;;;5113697;28;20263;-78
2023/01/22 16:57:35;;;;;;;11.95;6.80;;;5.70;99.90;;;;;;5108454;28;20606;-78
2023/01/22 17:00:04;;;;;;;14.18;7.70;;;5.60;99.90;;;;;;5114037;28;20712;-77
2023/01/22 17:02:34;;;;;;;10.15;6.30;;;5.60;99.90;;;;;;5114196;28;20374;-80
2023/01/22 17:05:05;;;;;;;11.43;6.18;;;5.70;99.90;;;;;;5112472;28;20232;-79
2023/01/22 17:07:33;;;;;;;8.82;6.45;;;5.70;99.90;;;;;;5116870;28;20281;-80
2023/01/22 17:10:00;;;;;;;15.35;6.00;;;5.70;99.90;;;;;;5110177;28;20278;-79
2023/01/22 17:12:27;;;;;;;6.85;5.10;;;5.70;99.90;;;;;;5114181;28;20296;-79
2023/01/22 17:14:54;;;;;;;11.77;5.60;;;5.70;99.90;;;;;;5109759;28;20272;-80
2023/01/22 17:17:21;;;;;;;11.68;5.38;;;5.60;99.90;;;;;;5106655;28;20203;-78
2023/01/22 17:19:48;;;;;;;9.23;5.55;;;5.60;99.90;;;;;;5100606;28;20259;-74
2023/01/22 17:22:15;;;;;;;11.60;5.25;;;5.70;99.90;;;;;;5110348;28;20582;-77
2023/01/22 17:24:45;;;;;;;12.18;6.60;;;5.60;99.90;;;;;;5110419;28;20252;-79
2023/01/22 17:27:17;;;;;;;9.55;5.45;;;5.70;99.90;;;;;;5103702;28;20901;-80
2023/01/22 17:29:44;;;;;;;13.02;5.70;;;5.70;99.90;;;;;;5102495;28;20209;-78
2023/01/22 17:32:11;;;;;;;9.15;5.25;;;5.60;99.90;;;;;;5105614;28;20187;-82
2023/01/22 17:34:40;;;;;;;10.45;5.88;;;5.70;99.90;;;;;;5111609;28;20223;-79
2023/01/22 17:37:12;;;;;;;7.35;5.72;;;5.70;99.90;;;;;;5116661;28;20232;-80
2023/01/22 17:39:49;;;;;;;19.13;9.23;;;5.80;99.90;;;;;;5112570;28;20553;-81
2023/01/22 17:42:17;;;;;;;7.78;6.43;;;5.80;99.90;;;;;;5115244;28;20196;-82
2023/01/22 17:44:47;;;;;;;10.82;6.18;;;5.70;99.90;;;;;;5113259;28;20211;-84
2023/01/22 17:47:14;;;;;;;11.75;6.35;;;5.70;99.90;;;;;;5108285;28;20224;-81
2023/01/22 17:49:41;;;;;;;17.20;6.03;;;5.70;99.90;;;;;;5110555;28;20264;-81
2023/01/22 17:52:10;;;;;;;12.63;8.80;;;5.60;99.90;;;;;;5116898;27;20289;-81
2023/01/22 17:54:37;;;;;;;9.55;5.72;;;5.60;99.90;;;;;;5105036;27;20203;-80
2023/01/22 17:57:05;;;;;;;9.93;5.60;;;5.60;99.90;;;;;;5108336;28;20698;-81
2023/01/22 17:59:34;;;;;;;12.95;6.05;;;5.60;99.90;;;;;;5105350;28;20761;-82
2023/01/22 18:02:01;;;;;;;13.55;5.47;;;5.60;99.90;;;;;;5115424;27;20202;-79
2023/01/22 18:04:30;;;;;;;11.30;5.80;;;5.60;99.90;;;;;;5096347;28;20219;-78
2023/01/22 18:06:57;;;;;;;14.55;7.22;;;5.50;99.90;;;;;;5106170;28;20212;-79
2023/01/22 18:09:27;;;;;;;10.65;6.75;;;5.50;99.90;;;;;;5106103;28;20294;-81
2023/01/22 18:11:56;;;;;;;10.40;6.57;;;5.50;99.90;;;;;;5106176;28;20285;-82
2023/01/22 18:14:27;;;;;;;5.70;4.95;;;5.60;99.90;;;;;;5101077;28;20230;-78
2023/01/22 18:16:55;;;;;;;14.35;5.97;;;5.60;99.90;;;;;;5111144;28;20294;-81
2023/01/22 18:19:36;;;;;;;14.65;7.18;;;5.70;99.90;;;;;;5111233;28;20947;-81
2023/01/22 18:22:04;;;;;;;11.90;6.45;;;5.70;99.90;;;;;;5112833;28;20282;-80
2023/01/22 18:24:33;;;;;;;7.88;5.43;;;5.70;99.90;;;;;;5111405;28;20621;-78
2023/01/22 18:27:01;;;;;;;14.15;7.28;;;5.70;99.90;;;;;;5117842;28;20282;-80
2023/01/22 18:29:28;;;;;;;9.18;6.22;;;5.70;99.90;;;;;;5112969;28;20204;-79
2023/01/22 18:31:56;;;;;;;9.38;5.90;;;5.70;99.90;;;;;;5117693;28;20208;-79
2023/01/22 18:34:23;;;;;;;10.05;5.47;;;5.80;99.90;;;;;;5101661;28;20240;-80
2023/01/22 18:36:50;;;;;;;10.75;6.05;;;5.80;99.90;;;;;;5107098;28;20578;-81
2023/01/22 18:39:19;;;;;;;12.45;6.88;;;5.80;99.90;;;;;;5116727;28;20208;-84
2023/01/22 18:41:46;;;;;;;13.05;7.07;;;5.80;99.90;;;;;;5111200;28;20246;-82
2023/01/22 18:44:16;;;;;;;7.90;5.30;;;5.80;99.90;;;;;;5111600;28;20224;-83
2023/01/22 18:46:46;;;;;;;10.63;6.22;;;5.90;99.90;;;;;;5115947;28;20221;-80
2023/01/22 18:49:17;;;;;;;7.18;6.30;;;5.80;99.90;;;;;;5105481;28;20707;-82
2023/01/22 18:51:45;;;;;;;11.00;6.03;;;5.80;99.90;;;;;;5113135;28;20208;-82
2023/01/22 18:54:12;;;;;;;10.35;7.85;;;5.80;99.90;;;;;;5109697;28;20205;-81
2023/01/22 18:56:39;;;;;;;10.05;6.72;;;5.80;99.90;;;;;;5115774;28;20228;-79
2023/01/22 18:59:07;;;;;;;14.13;7.60;;;5.80;99.90;;;;;;5103241;28;20220;-80
2023/01/22 19:01:36;;;;;;;15.40;7.03;;;5.80;99.90;;;;;;5108856;28;20236;-83
2023/01/22 19:04:06;;;;;;;8.27;7.35;;;5.80;99.90;;;;;;5116905;28;20307;-83
2023/01/22 19:06:37;;;;;;;15.02;6.57;;;5.90;99.90;;;;;;5102105;28;20224;-81
2023/01/22 19:09:11;;;;;;;14.32;5.95;;;5.90;99.90;;;;;;5107284;28;20652;-77
2023/01/22 19:11:39;;;;;;;11.40;6.28;;;5.90;99.90;;;;;;5102418;28;20232;-80
2023/01/22 19:14:07;;;;;;;6.57;5.30;;;5.80;99.90;;;;;;5114401;27;20204;-81
2023/01/22 19:16:37;;;;;;;9.95;7.07;;;5.80;99.90;;;;;;5118826;27;20231;-79
2023/01/22 19:19:10;;;;;;;10.55;6.72;;;5.90;99.90;;;;;;5127030;27;20197;-79
2023/01/22 19:21:40;;;;;;;9.23;6.70;;;5.80;99.90;;;;;;5104768;27;20215;-77
2023/01/22 19:24:08;;;;;;;15.63;7.18;;;5.80;99.90;;;;;;5118523;27;20247;-78
2023/01/22 19:26:37;;;;;;;13.10;6.90;;;5.80;99.90;;;;;;5105142;28;20309;-82
2023/01/22 19:29:07;;;;;;;7.55;5.53;;;5.70;99.90;;;;;;5115831;28;20287;-82
2023/01/22 19:31:37;;;;;;;7.60;5.60;;;5.80;99.90;;;;;;5102496;28;20208;-80
2023/01/22 19:34:06;;;;;;;9.27;5.85;;;5.70;99.90;;;;;;5100954;28;20200;-85
2023/01/22 19:36:35;;;;;;;11.85;5.30;;;5.70;99.90;;;;;;5102762;28;20679;-79
2023/01/22 19:39:08;;;;;;;9.27;6.47;;;5.70;99.90;;;;;;5112014;28;20662;-79
2023/01/22 19:41:36;;;;;;;10.63;5.93;;;5.70;99.90;;;;;;5113675;28;20303;-82
2023/01/22 19:44:03;;;;;;;10.60;6.25;;;5.70;99.90;;;;;;5100755;28;20262;-79
2023/01/22 19:46:30;;;;;;;14.52;7.10;;;5.70;99.90;;;;;;5104653;28;20258;-81
2023/01/22 19:48:57;;;;;;;11.63;6.93;;;5.60;99.90;;;;;;5105917;27;20208;-80
2023/01/22 19:51:25;;;;;;;8.20;5.80;;;5.60;99.90;;;;;;5110375;27;20200;-82
2023/01/22 19:53:53;;;;;;;7.72;5.47;;;5.70;99.90;;;;;;5113004;28;20212;-81
2023/01/22 19:56:23;;;;;;;12.73;5.70;;;5.80;99.90;;;;;;5114181;28;20228;-82
2023/01/22 19:58:52;;;;;;;12.77;6.03;;;5.70;99.90;;;;;;5119332;28;20600;-82
2023/01/22 20:01:20;;;;;;;8.75;5.28;;;5.80;99.90;;;;;;5114617;28;20546;-79
2023/01/22 20:03:49;;;;;;;10.77;6.70;;;5.80;99.90;;;;;;5104471;28;20692;-83
2023/01/22 20:06:17;;;;;;;12.95;5.30;;;5.80;99.90;;;;;;5112699;28;20223;-83
2023/01/22 20:08:45;;;;;;;7.22;4.88;;;5.80;99.90;;;;;;5104576;28;20208;-77
2023/01/22 20:11:13;;;;;;;6.70;5.68;;;5.80;99.90;;;;;;5112025;28;20231;-82
2023/01/22 20:13:42;;;;;;;11.02;4.85;;;5.90;99.90;;;;;;5115684;28;20254;-81
2023/01/22 20:16:17;;;;;;;14.63;5.90;;;5.90;99.90;;;;;;5115218;28;20315;-82
2023/01/22 20:18:45;;;;;;;9.10;5.97;;;5.90;99.90;;;;;;5109149;28;20262;-79
2023/01/22 20:21:13;;;;;;;7.10;4.47;;;5.80;99.90;;;;;;5112983;28;20235;-82
2023/01/22 20:23:40;;;;;;;8.73;5.15;;;5.70;99.90;;;;;;5113584;28;20200;-79
2023/01/22 20:26:08;;;;;;;9.48;5.35;;;5.80;99.90;;;;;;5114561;28;20220;-81
2023/01/22 20:28:36;;;;;;;9.45;5.50;;;5.70;99.90;;;;;;5111840;28;20254;-80
2023/01/22 20:31:08;;;;;;;6.85;4.88;;;5.80;99.90;;;;;;5118948;28;20643;-81
2023/01/22 20:33:36;;;;;;;13.35;6.13;;;5.80;99.90;;;;;;5110071;28;20246;-81
2023/01/22 20:36:07;;;;;;;6.25;5.28;;;5.80;99.90;;;;;;5119772;28;20262;-81
2023/01/22 20:38:35;;;;;;;8.27;6.63;;;5.80;99.90;;;;;;5119600;28;20260;-84
2023/01/22 20:41:08;;;;;;;11.35;6.05;;;5.90;99.90;;;;;;5109778;28;20239;-81
2023/01/22 20:43:35;;;;;;;15.20;6.13;;;6.00;99.90;;;;;;5116703;28;20204;-80
2023/01/22 20:46:06;;;;;;;11.13;5.90;;;5.90;99.90;;;;;;5107908;28;20264;-80
2023/01/22 20:48:33;;;;;;;11.07;6.35;;;5.90;99.90;;;;;;5112941;28;20230;-82
2023/01/22 20:51:00;;;;;;;8.50;6.70;;;5.90;99.90;;;;;;5108486;28;20286;-76
2023/01/22 20:53:28;;;;;;;8.10;6.15;;;5.90;99.90;;;;;;5098936;28;20204;-80
2023/01/22 20:56:01;;;;;;;7.55;5.05;;;5.90;99.90;;;;;;5109772;28;20243;-80
2023/01/22 20:58:29;;;;;;;9.27;4.88;;;5.90;99.90;;;;;;5104923;28;20201;-79
2023/01/22 21:01:03;;;;;;;9.82;4.90;;;6.00;99.90;;;;;;5111142;28;20205;-78
2023/01/22 21:03:32;;;;;;;8.55;5.03;;;6.00;99.90;;;;;;5112560;28;20303;-78
2023/01/22 21:06:02;;;;;;;8.88;4.75;;;5.90;99.90;;;;;;5108377;28;20248;-78
2023/01/22 21:08:29;;;;;;;9.30;5.10;;;5.90;99.90;;;;;;5106101;28;20562;-78
2023/01/22 21:10:57;;;;;;;7.93;4.38;;;5.90;99.90;;;;;;5101097;28;20205;-77
2023/01/22 21:13:25;;;;;;;8.55;5.82;;;5.90;99.90;;;;;;5103616;28;20233;-81
2023/01/22 21:15:52;;;;;;;14.82;5.53;;;5.90;99.90;;;;;;5108078;28;20267;-76
2023/01/22 21:18:19;;;;;;;15.50;5.55;;;5.90;99.90;;;;;;5104484;28;20279;-80
2023/01/22 21:20:48;;;;;;;15.57;5.53;;;6.00;99.90;;;;;;5108314;28;20288;-78
2023/01/22 21:23:16;;;;;;;9.82;5.35;;;5.90;99.90;;;;;;5109586;27;20204;-80
2023/01/22 21:25:43;;;;;;;8.27;5.57;;;5.90;99.90;;;;;;5111447;28;20241;-77
2023/01/22 21:28:11;;;;;;;9.90;4.80;;;5.90;99.90;;;;;;5111411;28;20217;-75
2023/01/22 21:30:39;;;;;;;9.90;5.78;;;5.90;99.90;;;;;;5107377;28;20205;-76
2023/01/22 21:33:08;;;;;;;13.52;5.88;;;5.90;99.90;;;;;;5119477;28;20324;-80
2023/01/22 21:35:35;;;;;;;6.18;4.82;;;5.90;99.90;;;;;;5112541;28;20221;-73
2023/01/22 21:38:03;;;;;;;11.13;5.60;;;5.90;99.90;;;;;;5115239;28;20249;-76
2023/01/22 21:40:33;;;;;;;8.30;5.40;;;5.90;99.90;;;;;;5119209;28;20216;-80
2023/01/22 21:48:29;;;;;;;9.63;5.57;;;6.00;99.90;;;;;;5103860;27;20296;-76
2023/01/22 21:50:56;;;;;;;12.90;6.28;;;5.90;99.90;;;;;;5102826;28;20232;-79
2023/01/22 21:53:25;;;;;;;8.13;5.82;;;5.90;99.90;;;;;;5103273;28;20209;-76
2023/01/22 21:55:53;;;;;;;11.25;7.10;;;6.00;99.90;;;;;;5111794;28;20224;-80
2023/01/22 21:58:21;;;;;;;9.77;5.60;;;6.00;99.90;;;;;;5098182;28;20228;-80
2023/01/22 22:00:49;;;;;;;7.15;5.15;;;6.00;99.90;;;;;;5103031;28;20214;-81
2023/01/22 22:03:16;;;;;;;9.60;6.38;;;6.00;99.90;;;;;;5105786;28;20198;-80
2023/01/22 22:05:43;;;;;;;9.65;6.30;;;6.00;99.90;;;;;;5103395;28;20297;-80
2023/01/22 22:08:12;;;;;;;16.70;6.20;;;6.00;99.90;;;;;;5133314;27;20188;-81
2023/01/22 22:10:40;;;;;;;8.70;5.97;;;6.00;99.90;;;;;;5116725;28;20226;-79
2023/01/22 22:13:07;;;;;;;14.43;6.10;;;6.00;99.90;;;;;;5108699;28;20242;-79
2023/01/22 22:15:34;;;;;;;5.53;4.78;;;6.00;99.90;;;;;;5102574;28;20256;-79
2023/01/22 22:18:03;;;;;;;12.88;6.28;;;6.10;99.90;;;;;;5109822;28;20223;-80
2023/01/22 22:20:32;;;;;;;15.18;7.15;;;6.10;99.90;;;;;;5107518;28;20244;-77
2023/01/22 22:22:59;;;;;;;12.57;6.53;;;6.10;99.90;;;;;;5097497;28;20205;-78
2023/01/22 22:25:26;;;;;;;9.82;6.03;;;6.00;99.90;;;;;;5104226;28;20220;-79
2023/01/22 22:27:57;;;;;;;8.93;5.97;;;6.10;99.90;;;;;;5105800;28;20292;-79
2023/01/22 22:30:23;;;;;;;12.90;5.88;;;6.10;99.90;;;;;;5109280;28;20205;-78
2023/01/22 22:32:53;;;;;;;7.65;5.70;;;6.10;99.90;;;;;;5101362;28;20290;-79
2023/01/22 22:35:20;;;;;;;9.02;5.75;;;6.20;99.90;;;;;;5097504;28;20234;-79
2023/01/22 22:37:49;;;;;;;9.90;6.60;;;6.20;99.90;;;;;;5099093;28;20221;-79
2023/01/22 22:40:17;;;;;;;11.40;6.07;;;6.10;99.90;;;;;;5103371;28;20703;-78
2023/01/22 22:42:44;;;;;;;8.30;6.60;;;6.10;99.90;;;;;;5101632;28;20197;-79
2023/01/22 22:45:13;;;;;;;6.90;5.25;;;6.10;99.90;;;;;;5099556;28;20257;-79
2023/01/22 22:47:40;;;;;;;10.10;6.40;;;6.00;99.90;;;;;;5104291;28;20228;-78
2023/01/22 22:50:09;;;;;;;8.13;5.68;;;6.00;99.90;;;;;;5109056;28;20295;-78
2023/01/22 22:52:36;;;;;;;7.28;6.57;;;5.90;99.90;;;;;;5107537;28;20198;-79
2023/01/22 22:55:03;;;;;;;10.48;6.18;;;5.90;99.90;;;;;;5120309;28;20279;-79
2023/01/22 22:57:30;;;;;;;8.85;6.22;;;5.90;99.90;;;;;;5113083;28;20247;-78
2023/01/22 22:59:58;;;;;;;11.98;7.13;;;5.80;99.90;;;;;;5109449;28;20197;-78
2023/01/22 23:02:26;;;;;;;8.40;6.63;;;5.80;99.90;;;;;;5120304;28;20209;-78
2023/01/22 23:04:53;;;;;;;7.40;5.95;;;5.70;99.90;;;;;;5098878;28;20235;-78
2023/01/22 23:07:20;;;;;;;9.85;6.53;;;5.70;99.90;;;;;;5117379;28;20196;-78
2023/01/22 23:09:48;;;;;;;7.63;6.15;;;5.70;99.90;;;;;;5109127;28;20198;-78
2023/01/22 23:12:15;;;;;;;11.70;7.07;;;5.70;99.90;;;;;;5104080;28;20738;-78
2023/01/22 23:14:43;;;;;;;17.25;6.07;;;5.70;99.90;;;;;;5116001;28;20766;-79
2023/01/22 23:17:09;;;;;;;6.78;5.53;;;5.70;99.90;;;;;;5108411;27;20300;-79
2023/01/22 23:19:38;;;;;;;6.60;5.78;;;5.60;99.90;;;;;;5107631;27;20297;-78
2023/01/22 23:22:05;;;;;;;9.10;6.05;;;5.70;99.90;;;;;;5106131;28;20291;-80